sensor_id;sensor_type;location;lat;lon;timestamp;pressure;altitude;pressure_sealevel;temperature;humidity
70407;BME280;57821;52.202;0.154;2023-05-27T00:00:50;103096.38;;;10.12;65.74
70407;BME280;57821;52.202;0.154;2023-05-27T00:03:17;103092.84;;;10.10;66.22
70407;BME280;57821;52.202;0.154;2023-05-27T00:05:43;103092.78;;;10.08;66.25
70407;BME280;57821;52.202;0.154;2023-05-27T00:08:10;103090.09;;;10.05;66.86
70407;BME280;57821;52.202;0.154;2023-05-27T00:10:37;103095.22;;;10.04;66.70
70407;BME280;57821;52.202;0.154;2023-05-27T00:13:04;103089.88;;;9.99;67.01
70407;BME280;57821;52.202;0.154;2023-05-27T00:15:30;103092.31;;;9.95;67.49
70407;BME280;57821;52.202;0.154;2023-05-27T00:18:00;103083.53;;;9.91;68.19
70407;BME280;57821;52.202;0.154;2023-05-27T00:20:26;103080.84;;;9.88;68.04
70407;BME280;57821;52.202;0.154;2023-05-27T00:22:53;103084.19;;;9.85;67.82
70407;BME280;57821;52.202;0.154;2023-05-27T00:25:19;103073.78;;;9.84;68.22
70407;BME280;57821;52.202;0.154;2023-05-27T00:27:47;103072.78;;;9.80;68.60
70407;BME280;57821;52.202;0.154;2023-05-27T00:30:13;103077.88;;;9.77;68.78
70407;BME280;57821;52.202;0.154;2023-05-27T00:32:40;103072.47;;;9.71;69.07
70407;BME280;57821;52.202;0.154;2023-05-27T00:35:07;103075.00;;;9.70;69.04
70407;BME280;57821;52.202;0.154;2023-05-27T00:37:34;103074.75;;;9.64;69.14
70407;BME280;57821;52.202;0.154;2023-05-27T00:40:00;103078.16;;;9.63;68.74
70407;BME280;57821;52.202;0.154;2023-05-27T00:42:27;103076.41;;;9.62;69.14
70407;BME280;57821;52.202;0.154;2023-05-27T00:44:53;103078.97;;;9.60;69.21
70407;BME280;57821;52.202;0.154;2023-05-27T00:47:20;103071.13;;;9.59;69.31
70407;BME280;57821;52.202;0.154;2023-05-27T00:49:48;103066.59;;;9.53;69.77
70407;BME280;57821;52.202;0.154;2023-05-27T00:52:14;103073.66;;;9.57;69.06
70407;BME280;57821;52.202;0.154;2023-05-27T00:54:41;103073.66;;;9.57;69.73
70407;BME280;57821;52.202;0.154;2023-05-27T00:57:08;103065.78;;;9.54;70.19
70407;BME280;57821;52.202;0.154;2023-05-27T00:59:34;103061.41;;;9.53;69.91
70407;BME280;57821;52.202;0.154;2023-05-27T01:02:01;103059.66;;;9.52;70.34
70407;BME280;57821;52.202;0.154;2023-05-27T01:04:27;103057.88;;;9.51;70.59
70407;BME280;57821;52.202;0.154;2023-05-27T01:07:22;103054.16;;;9.43;71.19
70407;BME280;57821;52.202;0.154;2023-05-27T01:09:58;103049.94;;;9.46;70.32
70407;BME280;57821;52.202;0.154;2023-05-27T01:12:34;103048.03;;;9.41;70.71
70407;BME280;57821;52.202;0.154;2023-05-27T01:15:04;103055.88;;;9.44;70.88
70407;BME280;57821;52.202;0.154;2023-05-27T01:17:32;103050.59;;;9.41;71.50
70407;BME280;57821;52.202;0.154;2023-05-27T01:20:01;103041.66;;;9.33;71.38
70407;BME280;57821;52.202;0.154;2023-05-27T01:22:30;103047.88;;;9.38;71.16
70407;BME280;57821;52.202;0.154;2023-05-27T01:24:56;103056.44;;;9.35;71.17
70407;BME280;57821;52.202;0.154;2023-05-27T01:27:23;103055.56;;;9.35;71.47
70407;BME280;57821;52.202;0.154;2023-05-27T01:29:51;103058.97;;;9.34;71.31
70407;BME280;57821;52.202;0.154;2023-05-27T01:32:18;103049.44;;;9.33;71.90
70407;BME280;57821;52.202;0.154;2023-05-27T01:35:01;103037.09;;;9.26;72.17
70407;BME280;57821;52.202;0.154;2023-05-27T01:37:32;103048.50;;;9.31;71.73
70407;BME280;57821;52.202;0.154;2023-05-27T01:40:00;103050.06;;;9.27;71.44
70407;BME280;57821;52.202;0.154;2023-05-27T01:42:28;103038.81;;;9.25;72.14
70407;BME280;57821;52.202;0.154;2023-05-27T01:44:56;103035.31;;;9.25;72.22
70407;BME280;57821;52.202;0.154;2023-05-27T01:47:23;103032.59;;;9.22;72.54
70407;BME280;57821;52.202;0.154;2023-05-27T01:49:49;103035.09;;;9.19;72.01
70407;BME280;57821;52.202;0.154;2023-05-27T01:52:16;103022.03;;;9.16;72.63
70407;BME280;57821;52.202;0.154;2023-05-27T01:54:43;103034.03;;;9.14;72.88
70407;BME280;57821;52.202;0.154;2023-05-27T01:57:10;103028.72;;;9.11;72.69
70407;BME280;57821;52.202;0.154;2023-05-27T01:59:38;103029.44;;;9.06;72.97
70407;BME280;57821;52.202;0.154;2023-05-27T02:02:05;103030.16;;;9.02;73.70
70407;BME280;57821;52.202;0.154;2023-05-27T02:04:31;103021.44;;;9.00;73.63
70407;BME280;57821;52.202;0.154;2023-05-27T02:06:58;103029.06;;;8.97;73.64
70407;BME280;57821;52.202;0.154;2023-05-27T02:09:24;103027.28;;;8.95;73.66
70407;BME280;57821;52.202;0.154;2023-05-27T02:11:52;103027.13;;;8.92;73.94
70407;BME280;57821;52.202;0.154;2023-05-27T02:14:19;103031.31;;;8.88;73.47
70407;BME280;57821;52.202;0.154;2023-05-27T02:16:46;103021.72;;;8.86;73.54
70407;BME280;57821;52.202;0.154;2023-05-27T02:19:15;103022.56;;;8.85;74.08
70407;BME280;57821;52.202;0.154;2023-05-27T02:21:41;103013.78;;;8.81;74.49
70407;BME280;57821;52.202;0.154;2023-05-27T02:24:10;103016.31;;;8.80;74.43
70407;BME280;57821;52.202;0.154;2023-05-27T02:26:37;103012.72;;;8.76;75.38
70407;BME280;57821;52.202;0.154;2023-05-27T02:29:04;103009.16;;;8.73;75.11
70407;BME280;57821;52.202;0.154;2023-05-27T02:31:30;103003.78;;;8.68;75.23
70407;BME280;57821;52.202;0.154;2023-05-27T02:33:57;103006.25;;;8.65;75.15
70407;BME280;57821;52.202;0.154;2023-05-27T02:36:23;102993.16;;;8.60;75.17
70407;BME280;57821;52.202;0.154;2023-05-27T02:38:50;102995.66;;;8.59;75.60
70407;BME280;57821;52.202;0.154;2023-05-27T02:41:17;102993.78;;;8.55;74.76
70407;BME280;57821;52.202;0.154;2023-05-27T02:43:43;102994.53;;;8.52;74.79
70407;BME280;57821;52.202;0.154;2023-05-27T02:46:10;102998.72;;;8.49;74.84
70407;BME280;57821;52.202;0.154;2023-05-27T02:48:37;103003.75;;;8.46;75.31
70407;BME280;57821;52.202;0.154;2023-05-27T02:51:04;103001.88;;;8.42;75.47
70407;BME280;57821;52.202;0.154;2023-05-27T02:53:33;103000.78;;;8.37;75.75
70407;BME280;57821;52.202;0.154;2023-05-27T02:56:00;102992.78;;;8.31;76.17
70407;BME280;57821;52.202;0.154;2023-05-27T02:58:26;102999.72;;;8.32;75.46
70407;BME280;57821;52.202;0.154;2023-05-27T03:00:53;102993.50;;;8.28;76.19
70407;BME280;57821;52.202;0.154;2023-05-27T03:03:20;102990.81;;;8.25;75.28
70407;BME280;57821;52.202;0.154;2023-05-27T03:05:47;103001.22;;;8.27;75.24
70407;BME280;57821;52.202;0.154;2023-05-27T03:08:14;102997.66;;;8.24;76.03
70407;BME280;57821;52.202;0.154;2023-05-27T03:10:41;103001.88;;;8.22;75.20
70407;BME280;57821;52.202;0.154;2023-05-27T03:13:07;102994.91;;;8.20;75.45
70407;BME280;57821;52.202;0.154;2023-05-27T03:15:34;102988.78;;;8.18;76.37
70407;BME280;57821;52.202;0.154;2023-05-27T03:18:00;102986.81;;;8.12;76.67
70407;BME280;57821;52.202;0.154;2023-05-27T03:20:30;102995.38;;;8.11;76.92
70407;BME280;57821;52.202;0.154;2023-05-27T03:22:56;102984.06;;;8.08;77.26
70407;BME280;57821;52.202;0.154;2023-05-27T03:25:23;102990.84;;;8.06;76.94
70407;BME280;57821;52.202;0.154;2023-05-27T03:27:50;102992.53;;;8.05;76.88
70407;BME280;57821;52.202;0.154;2023-05-27T03:30:17;102988.97;;;8.02;77.49
70407;BME280;57821;52.202;0.154;2023-05-27T03:32:47;102984.44;;;7.96;77.38
70407;BME280;57821;52.202;0.154;2023-05-27T03:35:17;102986.94;;;7.95;77.48
70407;BME280;57821;52.202;0.154;2023-05-27T03:37:45;102986.81;;;7.92;77.98
70407;BME280;57821;52.202;0.154;2023-05-27T03:40:12;102989.34;;;7.90;76.81
70407;BME280;57821;52.202;0.154;2023-05-27T03:42:39;102991.75;;;7.87;77.22
70407;BME280;57821;52.202;0.154;2023-05-27T03:45:06;102990.03;;;7.86;77.50
70407;BME280;57821;52.202;0.154;2023-05-27T03:47:33;102988.25;;;7.85;76.90
70407;BME280;57821;52.202;0.154;2023-05-27T03:50:02;102991.66;;;7.84;76.93
70407;BME280;57821;52.202;0.154;2023-05-27T03:52:29;102982.13;;;7.83;77.50
70407;BME280;57821;52.202;0.154;2023-05-27T03:54:56;102981.31;;;7.84;77.17
70407;BME280;57821;52.202;0.154;2023-05-27T03:57:23;102983.91;;;7.84;77.43
70407;BME280;57821;52.202;0.154;2023-05-27T03:59:49;102981.31;;;7.84;77.27
70407;BME280;57821;52.202;0.154;2023-05-27T04:02:16;102982.28;;;7.86;78.08
70407;BME280;57821;52.202;0.154;2023-05-27T04:04:42;102978.84;;;7.87;77.70
70407;BME280;57821;52.202;0.154;2023-05-27T04:07:09;102979.88;;;7.91;78.42
70407;BME280;57821;52.202;0.154;2023-05-27T04:09:35;102985.16;;;7.94;78.53
70407;BME280;57821;52.202;0.154;2023-05-27T04:12:02;102983.63;;;7.97;78.56
70407;BME280;57821;52.202;0.154;2023-05-27T04:14:29;102983.72;;;8.00;78.92
70407;BME280;57821;52.202;0.154;2023-05-27T04:16:55;102988.19;;;8.04;78.43
70407;BME280;57821;52.202;0.154;2023-05-27T04:19:22;102981.47;;;8.08;78.48
70407;BME280;57821;52.202;0.154;2023-05-27T04:21:48;102986.00;;;8.13;78.34
70407;BME280;57821;52.202;0.154;2023-05-27T04:24:15;102977.56;;;8.17;78.71
70407;BME280;57821;52.202;0.154;2023-05-27T04:26:43;102977.81;;;8.23;78.32
70407;BME280;57821;52.202;0.154;2023-05-27T04:29:10;102982.28;;;8.27;78.94
70407;BME280;57821;52.202;0.154;2023-05-27T04:31:38;102976.50;;;8.33;79.40
70407;BME280;57821;52.202;0.154;2023-05-27T04:34:11;102977.63;;;8.40;79.51
70407;BME280;57821;52.202;0.154;2023-05-27T04:36:38;102976.13;;;8.45;78.97
70407;BME280;57821;52.202;0.154;2023-05-27T04:39:10;102971.19;;;8.51;79.11
70407;BME280;57821;52.202;0.154;2023-05-27T04:41:38;102974.03;;;8.57;79.07
70407;BME280;57821;52.202;0.154;2023-05-27T04:44:13;102977.72;;;8.63;79.60
70407;BME280;57821;52.202;0.154;2023-05-27T04:46:43;102981.44;;;8.70;79.36
70407;BME280;57821;52.202;0.154;2023-05-27T04:49:10;102979.09;;;8.76;79.39
70407;BME280;57821;52.202;0.154;2023-05-27T04:51:37;102982.75;;;8.81;79.94
70407;BME280;57821;52.202;0.154;2023-05-27T04:54:04;102983.78;;;8.86;79.24
70407;BME280;57821;52.202;0.154;2023-05-27T04:56:32;102978.75;;;8.89;79.97
70407;BME280;57821;52.202;0.154;2023-05-27T04:58:59;102981.44;;;8.92;79.20
70407;BME280;57821;52.202;0.154;2023-05-27T05:01:30;102987.69;;;8.97;79.39
70407;BME280;57821;52.202;0.154;2023-05-27T05:04:03;102993.94;;;9.02;79.42
70407;BME280;57821;52.202;0.154;2023-05-27T05:06:30;102991.34;;;9.02;79.43
70407;BME280;57821;52.202;0.154;2023-05-27T05:08:56;102987.97;;;9.05;79.47
70407;BME280;57821;52.202;0.154;2023-05-27T05:11:26;102987.25;;;9.09;79.91
70407;BME280;57821;52.202;0.154;2023-05-27T05:13:53;102999.44;;;9.12;79.72
70407;BME280;57821;52.202;0.154;2023-05-27T05:16:19;102999.31;;;9.08;79.68
70407;BME280;57821;52.202;0.154;2023-05-27T05:18:46;102998.56;;;9.11;79.56
70407;BME280;57821;52.202;0.154;2023-05-27T05:21:12;102988.22;;;9.11;80.08
70407;BME280;57821;52.202;0.154;2023-05-27T05:23:40;102990.06;;;9.15;79.66
70407;BME280;57821;52.202;0.154;2023-05-27T05:26:06;102984.22;;;9.19;79.51
70407;BME280;57821;52.202;0.154;2023-05-27T05:28:37;102987.91;;;9.26;80.01
70407;BME280;57821;52.202;0.154;2023-05-27T05:31:06;102986.47;;;9.34;79.42
70407;BME280;57821;52.202;0.154;2023-05-27T05:33:32;102986.81;;;9.43;80.11
70407;BME280;57821;52.202;0.154;2023-05-27T05:38:36;102985.06;;;9.66;79.64
70407;BME280;57821;52.202;0.154;2023-05-27T05:41:02;102994.00;;;9.75;79.50
70407;BME280;57821;52.202;0.154;2023-05-27T05:43:32;102978.78;;;9.84;78.96
70407;BME280;57821;52.202;0.154;2023-05-27T05:45:59;102981.69;;;9.94;79.04
70407;BME280;57821;52.202;0.154;2023-05-27T05:48:26;102977.69;;;10.03;78.99
70407;BME280;57821;52.202;0.154;2023-05-27T05:50:53;102984.94;;;10.13;78.66
70407;BME280;57821;52.202;0.154;2023-05-27T05:53:20;102984.41;;;10.22;78.10
70407;BME280;57821;52.202;0.154;2023-05-27T05:55:47;102989.88;;;10.31;78.21
70407;BME280;57821;52.202;0.154;2023-05-27T05:58:16;102980.59;;;10.38;77.58
70407;BME280;57821;52.202;0.154;2023-05-27T06:00:45;102987.81;;;10.46;77.76
70407;BME280;57821;52.202;0.154;2023-05-27T06:03:32;102978.50;;;10.53;77.76
70407;BME280;57821;52.202;0.154;2023-05-27T06:06:00;102987.38;;;10.59;77.67
70407;BME280;57821;52.202;0.154;2023-05-27T06:08:26;102984.22;;;10.69;77.37
70407;BME280;57821;52.202;0.154;2023-05-27T06:11:03;102994.00;;;10.78;77.57
70407;BME280;57821;52.202;0.154;2023-05-27T06:13:32;102983.84;;;10.86;77.16
70407;BME280;57821;52.202;0.154;2023-05-27T06:16:00;102984.09;;;10.93;76.99
70407;BME280;57821;52.202;0.154;2023-05-27T06:18:28;102988.72;;;11.03;76.78
70407;BME280;57821;52.202;0.154;2023-05-27T06:20:54;102985.53;;;11.12;76.90
70407;BME280;57821;52.202;0.154;2023-05-27T06:23:24;102985.84;;;11.24;77.17
70407;BME280;57821;52.202;0.154;2023-05-27T06:26:08;102977.53;;;11.36;76.29
70407;BME280;57821;52.202;0.154;2023-05-27T06:28:41;102978.75;;;11.47;76.03
70407;BME280;57821;52.202;0.154;2023-05-27T06:31:08;102965.94;;;11.54;75.65
70407;BME280;57821;52.202;0.154;2023-05-27T06:33:37;102973.13;;;11.63;76.28
70407;BME280;57821;52.202;0.154;2023-05-27T06:36:04;102967.34;;;11.73;76.17
70407;BME280;57821;52.202;0.154;2023-05-27T06:38:31;102967.59;;;11.82;76.32
70407;BME280;57821;52.202;0.154;2023-05-27T06:40:59;102979.16;;;11.93;75.84
70407;BME280;57821;52.202;0.154;2023-05-27T06:43:26;102977.72;;;12.06;75.29
70407;BME280;57821;52.202;0.154;2023-05-27T06:45:57;102971.97;;;12.18;75.01
70407;BME280;57821;52.202;0.154;2023-05-27T06:48:42;102970.47;;;12.27;74.48
70407;BME280;57821;52.202;0.154;2023-05-27T06:51:09;102959.41;;;12.36;75.03
70407;BME280;57821;52.202;0.154;2023-05-27T06:53:36;102959.66;;;12.47;74.90
70407;BME280;57821;52.202;0.154;2023-05-27T06:56:10;102961.69;;;12.60;74.42
70407;BME280;57821;52.202;0.154;2023-05-27T06:58:59;102959.31;;;12.69;73.00
70407;BME280;57821;52.202;0.154;2023-05-27T07:01:25;102955.94;;;12.73;72.73
70407;BME280;57821;52.202;0.154;2023-05-27T07:03:57;102963.13;;;12.85;72.44
70407;BME280;57821;52.202;0.154;2023-05-27T07:06:47;102957.22;;;12.93;71.89
70407;BME280;57821;52.202;0.154;2023-05-27T07:09:15;102954.66;;;12.95;71.88
70407;BME280;57821;52.202;0.154;2023-05-27T07:11:42;102954.75;;;12.98;71.86
70407;BME280;57821;52.202;0.154;2023-05-27T07:14:14;102948.78;;;13.03;71.31
70407;BME280;57821;52.202;0.154;2023-05-27T07:16:41;102943.00;;;13.16;70.97
70407;BME280;57821;52.202;0.154;2023-05-27T07:19:09;102944.97;;;13.28;70.69
70407;BME280;57821;52.202;0.154;2023-05-27T07:21:51;102951.25;;;13.38;70.74
70407;BME280;57821;52.202;0.154;2023-05-27T07:24:20;102947.00;;;13.43;69.80
70407;BME280;57821;52.202;0.154;2023-05-27T07:26:47;102941.00;;;13.47;69.10
70407;BME280;57821;52.202;0.154;2023-05-27T07:29:15;102940.31;;;13.57;69.20
70407;BME280;57821;52.202;0.154;2023-05-27T07:31:53;102930.94;;;13.67;69.33
70407;BME280;57821;52.202;0.154;2023-05-27T07:34:26;102933.84;;;13.83;69.19
70407;BME280;57821;52.202;0.154;2023-05-27T07:36:52;102927.22;;;14.02;68.71
70407;BME280;57821;52.202;0.154;2023-05-27T07:39:19;102933.56;;;14.18;68.20
70407;BME280;57821;52.202;0.154;2023-05-27T07:41:46;102937.28;;;14.32;68.07
70407;BME280;57821;52.202;0.154;2023-05-27T07:44:13;102924.22;;;14.32;66.85
70407;BME280;57821;52.202;0.154;2023-05-27T07:46:39;102929.66;;;14.44;66.84
70407;BME280;57821;52.202;0.154;2023-05-27T07:49:07;102930.72;;;14.58;66.27
70407;BME280;57821;52.202;0.154;2023-05-27T07:51:40;102932.50;;;14.62;65.93
70407;BME280;57821;52.202;0.154;2023-05-27T07:54:09;102924.78;;;14.70;66.33
70407;BME280;57821;52.202;0.154;2023-05-27T07:56:35;102915.38;;;14.83;65.84
70407;BME280;57821;52.202;0.154;2023-05-27T07:59:02;102917.25;;;14.93;65.31
70407;BME280;57821;52.202;0.154;2023-05-27T08:01:29;102912.09;;;14.99;64.34
70407;BME280;57821;52.202;0.154;2023-05-27T08:03:56;102911.22;;;14.98;63.89
70407;BME280;57821;52.202;0.154;2023-05-27T08:06:46;102913.03;;;15.04;63.70
70407;BME280;57821;52.202;0.154;2023-05-27T08:09:29;102905.28;;;15.11;63.33
70407;BME280;57821;52.202;0.154;2023-05-27T08:12:02;102907.94;;;15.13;63.39
70407;BME280;57821;52.202;0.154;2023-05-27T08:14:49;102904.53;;;15.21;63.10
70407;BME280;57821;52.202;0.154;2023-05-27T08:17:40;102899.38;;;15.28;63.30
70407;BME280;57821;52.202;0.154;2023-05-27T08:20:15;102907.31;;;15.38;63.02
70407;BME280;57821;52.202;0.154;2023-05-27T08:23:21;102902.16;;;15.44;62.87
70407;BME280;57821;52.202;0.154;2023-05-27T08:25:58;102907.53;;;15.56;62.76
70407;BME280;57821;52.202;0.154;2023-05-27T08:28:33;102891.91;;;15.63;62.34
70407;BME280;57821;52.202;0.154;2023-05-27T08:31:22;102898.97;;;15.73;61.87
70407;BME280;57821;52.202;0.154;2023-05-27T08:33:53;102888.59;;;15.80;61.57
70407;BME280;57821;52.202;0.154;2023-05-27T08:36:20;102886.91;;;15.84;60.77
70407;BME280;57821;52.202;0.154;2023-05-27T08:38:48;102882.53;;;15.86;60.56
70407;BME280;57821;52.202;0.154;2023-05-27T08:41:19;102879.97;;;15.92;60.31
70407;BME280;57821;52.202;0.154;2023-05-27T08:43:46;102874.78;;;15.99;60.13
70407;BME280;57821;52.202;0.154;2023-05-27T08:46:14;102866.13;;;16.05;60.46
70407;BME280;57821;52.202;0.154;2023-05-27T08:48:41;102874.94;;;16.22;60.16
70407;BME280;57821;52.202;0.154;2023-05-27T08:51:09;102875.03;;;16.37;59.81
70407;BME280;57821;52.202;0.154;2023-05-27T08:53:37;102870.72;;;16.44;58.94
70407;BME280;57821;52.202;0.154;2023-05-27T08:56:05;102864.66;;;16.53;59.37
70407;BME280;57821;52.202;0.154;2023-05-27T08:58:33;102853.38;;;16.61;58.55
70407;BME280;57821;52.202;0.154;2023-05-27T09:01:00;102857.78;;;16.73;57.88
70407;BME280;57821;52.202;0.154;2023-05-27T09:03:27;102854.34;;;16.81;57.58
70407;BME280;57821;52.202;0.154;2023-05-27T09:05:55;102849.13;;;16.88;57.18
70407;BME280;57821;52.202;0.154;2023-05-27T09:08:22;102844.75;;;16.91;56.67
70407;BME280;57821;52.202;0.154;2023-05-27T09:10:55;102850.88;;;16.93;56.84
70407;BME280;57821;52.202;0.154;2023-05-27T09:13:29;102848.28;;;16.93;56.46
70407;BME280;57821;52.202;0.154;2023-05-27T09:16:03;102843.03;;;16.96;56.65
70407;BME280;57821;52.202;0.154;2023-05-27T09:18:35;102826.44;;;16.97;56.41
70407;BME280;57821;52.202;0.154;2023-05-27T09:21:02;102839.56;;;17.12;56.51
70407;BME280;57821;52.202;0.154;2023-05-27T09:23:28;102834.34;;;17.18;55.83
70407;BME280;57821;52.202;0.154;2023-05-27T09:25:55;102829.97;;;17.20;55.73
70407;BME280;57821;52.202;0.154;2023-05-27T09:28:25;102826.50;;;17.37;55.79
70407;BME280;57821;52.202;0.154;2023-05-27T09:33:26;102819.56;;;17.63;55.13
70407;BME280;57821;52.202;0.154;2023-05-27T09:35:53;102821.28;;;17.79;55.02
70407;BME280;57821;52.202;0.154;2023-05-27T09:38:19;102817.78;;;17.91;54.52
70407;BME280;57821;52.202;0.154;2023-05-27T09:40:46;102813.38;;;18.08;55.72
70407;BME280;57821;52.202;0.154;2023-05-27T09:43:13;102812.41;;;18.35;53.47
70407;BME280;57821;52.202;0.154;2023-05-27T09:45:40;102811.47;;;18.62;53.82
70407;BME280;57821;52.202;0.154;2023-05-27T09:48:07;102808.66;;;18.94;53.39
70407;BME280;57821;52.202;0.154;2023-05-27T09:50:37;102817.16;;;19.35;52.30
70407;BME280;57821;52.202;0.154;2023-05-27T09:53:04;102815.06;;;19.77;51.74
70407;BME280;57821;52.202;0.154;2023-05-27T09:55:40;102803.34;;;20.08;49.85
70407;BME280;57821;52.202;0.154;2023-05-27T09:58:06;102800.47;;;20.31;50.36
70407;BME280;57821;52.202;0.154;2023-05-27T10:00:33;102795.81;;;20.54;49.35
70407;BME280;57821;52.202;0.154;2023-05-27T10:03:00;102795.59;;;20.71;47.84
70407;BME280;57821;52.202;0.154;2023-05-27T10:05:28;102802.28;;;20.96;48.12
70407;BME280;57821;52.202;0.154;2023-05-27T10:07:54;102793.75;;;21.36;47.81
70407;BME280;57821;52.202;0.154;2023-05-27T10:10:39;102789.44;;;21.82;46.78
70407;BME280;57821;52.202;0.154;2023-05-27T10:13:05;102786.97;;;22.19;46.16
70407;BME280;57821;52.202;0.154;2023-05-27T10:15:33;102781.75;;;22.58;45.11
70407;BME280;57821;52.202;0.154;2023-05-27T10:18:02;102780.31;;;22.84;44.30
70407;BME280;57821;52.202;0.154;2023-05-27T10:20:34;102765.03;;;22.97;42.61
70407;BME280;57821;52.202;0.154;2023-05-27T10:23:20;102777.50;;;22.90;42.38
70407;BME280;57821;52.202;0.154;2023-05-27T10:26:06;102772.84;;;23.02;41.73
70407;BME280;57821;52.202;0.154;2023-05-27T10:31:11;102757.88;;;23.36;41.29
70407;BME280;57821;52.202;0.154;2023-05-27T10:33:43;102755.84;;;23.47;41.02
70407;BME280;57821;52.202;0.154;2023-05-27T10:36:15;102748.69;;;23.52;42.34
70407;BME280;57821;52.202;0.154;2023-05-27T10:38:43;102754.69;;;23.90;40.67
70407;BME280;57821;52.202;0.154;2023-05-27T10:41:20;102755.13;;;24.05;39.94
70407;BME280;57821;52.202;0.154;2023-05-27T10:43:57;102742.31;;;24.23;39.34
70407;BME280;57821;52.202;0.154;2023-05-27T10:46:24;102739.41;;;24.60;38.39
70407;BME280;57821;52.202;0.154;2023-05-27T10:48:52;102740.53;;;24.80;38.37
70407;BME280;57821;52.202;0.154;2023-05-27T10:51:18;102725.25;;;24.87;37.28
70407;BME280;57821;52.202;0.154;2023-05-27T10:53:46;102728.38;;;25.01;37.44
70407;BME280;57821;52.202;0.154;2023-05-27T10:56:20;102733.16;;;25.16;36.46
70407;BME280;57821;52.202;0.154;2023-05-27T10:58:46;102733.59;;;25.04;36.68
70407;BME280;57821;52.202;0.154;2023-05-27T11:01:14;102726.34;;;25.09;36.80
70407;BME280;57821;52.202;0.154;2023-05-27T11:03:44;102716.94;;;25.25;37.37
70407;BME280;57821;52.202;0.154;2023-05-27T11:06:13;102718.41;;;25.60;36.26
70407;BME280;57821;52.202;0.154;2023-05-27T11:08:40;102714.03;;;25.83;35.25
70407;BME280;57821;52.202;0.154;2023-05-27T11:11:08;102707.34;;;25.72;34.24
70407;BME280;57821;52.202;0.154;2023-05-27T11:13:39;102707.88;;;25.57;34.55
70407;BME280;57821;52.202;0.154;2023-05-27T11:16:07;102704.34;;;25.57;34.53
70407;BME280;57821;52.202;0.154;2023-05-27T11:18:46;102697.44;;;25.76;35.79
70407;BME280;57821;52.202;0.154;2023-05-27T11:21:15;102697.88;;;25.89;33.96
70407;BME280;57821;52.202;0.154;2023-05-27T11:23:47;102694.56;;;25.82;33.80
70407;BME280;57821;52.202;0.154;2023-05-27T11:26:19;102682.72;;;25.67;34.11
70407;BME280;57821;52.202;0.154;2023-05-27T11:28:55;102685.75;;;25.57;33.61
70407;BME280;57821;52.202;0.154;2023-05-27T11:31:31;102683.44;;;25.46;33.73
70407;BME280;57821;52.202;0.154;2023-05-27T11:33:58;102672.25;;;25.63;35.76
70407;BME280;57821;52.202;0.154;2023-05-27T11:36:28;102666.63;;;25.95;33.97
70407;BME280;57821;52.202;0.154;2023-05-27T11:38:56;102657.84;;;25.93;33.49
70407;BME280;57821;52.202;0.154;2023-05-27T11:41:25;102663.97;;;25.95;33.29
70407;BME280;57821;52.202;0.154;2023-05-27T11:43:59;102664.88;;;25.94;33.13
70407;BME280;57821;52.202;0.154;2023-05-27T11:46:41;102665.47;;;26.02;32.89
70407;BME280;57821;52.202;0.154;2023-05-27T11:49:12;102655.53;;;26.07;33.70
70407;BME280;57821;52.202;0.154;2023-05-27T11:51:45;102657.25;;;26.08;32.90
70407;BME280;57821;52.202;0.154;2023-05-27T11:54:26;102646.25;;;26.17;33.03
70407;BME280;57821;52.202;0.154;2023-05-27T11:56:53;102650.88;;;26.36;34.03
70407;BME280;57821;52.202;0.154;2023-05-27T11:59:22;102643.47;;;26.44;33.08
70407;BME280;57821;52.202;0.154;2023-05-27T12:01:50;102636.34;;;26.21;32.44
70407;BME280;57821;52.202;0.154;2023-05-27T12:04:17;102628.81;;;26.10;33.06
70407;BME280;57821;52.202;0.154;2023-05-27T12:06:44;102627.06;;;26.09;33.13
70407;BME280;57821;52.202;0.154;2023-05-27T12:09:11;102629.19;;;26.01;32.68
70407;BME280;57821;52.202;0.154;2023-05-27T12:11:38;102626.03;;;25.92;32.56
70407;BME280;57821;52.202;0.154;2023-05-27T12:14:05;102620.69;;;25.68;33.03
70407;BME280;57821;52.202;0.154;2023-05-27T12:16:32;102619.66;;;25.48;32.42
70407;BME280;57821;52.202;0.154;2023-05-27T12:18:59;102625.13;;;25.20;32.62
70407;BME280;57821;52.202;0.154;2023-05-27T12:21:26;102617.56;;;24.81;33.27
70407;BME280;57821;52.202;0.154;2023-05-27T12:23:53;102611.03;;;24.39;34.19
70407;BME280;57821;52.202;0.154;2023-05-27T12:26:19;102612.13;;;24.04;34.16
70407;BME280;57821;52.202;0.154;2023-05-27T12:28:46;102601.59;;;23.71;34.90
70407;BME280;57821;52.202;0.154;2023-05-27T12:31:12;102590.13;;;23.40;35.49
70407;BME280;57821;52.202;0.154;2023-05-27T12:33:39;102589.06;;;23.15;36.14
70407;BME280;57821;52.202;0.154;2023-05-27T12:36:06;102593.44;;;22.83;36.19
70407;BME280;57821;52.202;0.154;2023-05-27T12:38:32;102583.47;;;22.59;37.07
70407;BME280;57821;52.202;0.154;2023-05-27T12:41:00;102588.91;;;22.53;37.42
70407;BME280;57821;52.202;0.154;2023-05-27T12:43:26;102569.78;;;22.42;37.32
70407;BME280;57821;52.202;0.154;2023-05-27T12:45:53;102569.94;;;22.36;37.72
70407;BME280;57821;52.202;0.154;2023-05-27T12:48:20;102571.03;;;22.26;37.33
70407;BME280;57821;52.202;0.154;2023-05-27T12:50:47;102579.19;;;22.17;38.53
70407;BME280;57821;52.202;0.154;2023-05-27T12:53:13;102576.66;;;22.12;38.08
70407;BME280;57821;52.202;0.154;2023-05-27T12:55:42;102566.13;;;22.10;38.01
70407;BME280;57821;52.202;0.154;2023-05-27T12:58:09;102567.78;;;22.15;38.47
70407;BME280;57821;52.202;0.154;2023-05-27T13:00:36;102554.44;;;22.21;38.56
70407;BME280;57821;52.202;0.154;2023-05-27T13:03:03;102561.31;;;22.28;38.20
70407;BME280;57821;52.202;0.154;2023-05-27T13:05:29;102555.88;;;22.34;38.62
70407;BME280;57821;52.202;0.154;2023-05-27T13:08:01;102548.72;;;22.39;38.73
70407;BME280;57821;52.202;0.154;2023-05-27T13:10:28;102558.34;;;22.41;38.46
70407;BME280;57821;52.202;0.154;2023-05-27T13:12:56;102549.63;;;22.38;38.86